createdAt,value
2022-09-04T00:00:19.339Z,15.67
2022-09-04T00:03:23.077Z,15.64
2022-09-04T00:05:58.345Z,15.61
2022-09-04T00:08:50.370Z,15.55
2022-09-04T00:11:36.586Z,15.50
2022-09-04T00:14:14.937Z,15.47
2022-09-04T00:16:55.222Z,15.43
2022-09-04T00:19:39.424Z,15.44
2022-09-04T00:22:22.211Z,15.48
2022-09-04T00:25:02.239Z,15.48
2022-09-04T00:27:45.258Z,15.46
2022-09-04T00:30:22.398Z,15.42
2022-09-04T00:33:02.576Z,15.35
2022-09-04T00:35:39.434Z,15.32
2022-09-04T00:38:18.778Z,15.32
2022-09-04T00:41:02.019Z,15.29
2022-09-04T00:43:58.093Z,15.25
2022-09-04T00:47:06.905Z,15.22
2022-09-04T00:50:00.037Z,15.21
2022-09-04T00:52:57.466Z,15.18
2022-09-04T00:55:49.318Z,15.15
2022-09-04T00:58:52.327Z,15.13
2022-09-04T01:01:29.136Z,15.15
2022-09-04T01:04:19.822Z,15.12
2022-09-04T01:07:05.996Z,15.10
2022-09-04T01:10:17.015Z,15.06
2022-09-04T01:12:59.042Z,15.03
2022-09-04T01:15:41.573Z,15.01
2022-09-04T01:18:21.745Z,14.97
2022-09-04T01:21:22.203Z,14.94
2022-09-04T01:24:25.048Z,14.93
2022-09-04T01:27:06.778Z,14.88
2022-09-04T01:29:51.179Z,14.83
2022-09-04T01:32:35.396Z,14.79
2022-09-04T01:35:16.742Z,14.76
2022-09-04T01:38:01.047Z,14.73
2022-09-04T01:40:40.491Z,14.71
2022-09-04T01:43:17.980Z,14.70
2022-09-04T01:46:23.091Z,14.69
2022-09-04T01:49:02.687Z,14.66
2022-09-04T01:51:45.111Z,14.67
2022-09-04T01:54:35.166Z,14.69
2022-09-04T01:57:17.814Z,14.70
2022-09-04T02:00:03.576Z,14.66
2022-09-04T02:02:53.275Z,14.65
2022-09-04T02:05:38.343Z,14.65
2022-09-04T02:08:36.942Z,14.63
2022-09-04T02:11:16.874Z,14.59
2022-09-04T02:14:10.314Z,14.54
2022-09-04T02:16:56.699Z,14.52
2022-09-04T02:19:43.720Z,14.52
2022-09-04T02:22:26.531Z,14.50
2022-09-04T02:25:07.173Z,14.48
2022-09-04T02:27:47.170Z,14.46
2022-09-04T02:30:21.826Z,14.44
2022-09-04T02:33:06.628Z,14.41
2022-09-04T02:35:47.113Z,14.41
2022-09-04T02:38:30.211Z,14.39
2022-09-04T02:41:12.051Z,14.35
2022-09-04T02:44:03.762Z,14.32
2022-09-04T02:46:50.926Z,14.30
2022-09-04T02:49:32.874Z,14.28
2022-09-04T02:52:27.497Z,14.28
2022-09-04T02:55:14.417Z,14.32
2022-09-04T02:58:01.634Z,14.32
2022-09-04T03:00:46.162Z,14.35
2022-09-04T03:03:24.218Z,14.35
2022-09-04T03:06:06.764Z,14.33
2022-09-04T03:08:48.912Z,14.32
2022-09-04T03:11:35.186Z,14.31
2022-09-04T03:14:16.365Z,14.27
2022-09-04T03:16:57.447Z,14.27
2022-09-04T03:19:37.450Z,14.23
2022-09-04T03:22:19.503Z,14.18
2022-09-04T03:25:08.388Z,14.13
2022-09-04T03:27:41.957Z,14.10
2022-09-04T03:30:17.394Z,14.10
2022-09-04T03:32:57.183Z,14.10
2022-09-04T03:35:36.664Z,14.06
2022-09-04T03:38:24.834Z,14.04
2022-09-04T03:41:11.628Z,14.04
2022-09-04T03:44:06.323Z,14.04
2022-09-04T03:46:54.426Z,14.03
2022-09-04T03:49:43.177Z,14.03
2022-09-04T03:52:26.390Z,14.00
2022-09-04T03:55:16.156Z,13.99
2022-09-04T03:58:09.934Z,13.98
2022-09-04T04:00:52.061Z,13.96
2022-09-04T04:03:39.154Z,13.93
2022-09-04T04:06:25.893Z,13.91
2022-09-04T04:09:24.388Z,13.88
2022-09-04T04:12:10.969Z,13.88
2022-09-04T04:14:59.971Z,13.87
2022-09-04T04:17:55.478Z,13.88
2022-09-04T04:20:43.091Z,13.93
2022-09-04T04:23:39.296Z,13.99
2022-09-04T04:26:18.957Z,13.99
2022-09-04T04:29:15.108Z,13.95
2022-09-04T04:32:12.253Z,13.94
2022-09-04T04:34:58.982Z,13.99
2022-09-04T04:37:44.992Z,14.01
2022-09-04T04:40:28.351Z,14.05
2022-09-04T04:43:11.178Z,14.11
2022-09-04T04:45:54.493Z,14.14
2022-09-04T04:49:04.691Z,14.16
2022-09-04T04:52:04.489Z,14.20
2022-09-04T04:54:52.934Z,14.22
2022-09-04T04:57:33.631Z,14.30
2022-09-04T05:00:25.285Z,14.37
2022-09-04T05:03:15.833Z,14.41
2022-09-04T05:05:58.824Z,14.46
2022-09-04T05:08:42.135Z,14.46
2022-09-04T05:11:24.630Z,14.49
2022-09-04T05:14:08.776Z,14.53
2022-09-04T05:16:56.650Z,14.46
2022-09-04T05:19:38.091Z,14.47
2022-09-04T05:22:21.309Z,14.58
2022-09-04T05:25:04.693Z,14.66
2022-09-04T05:27:49.252Z,14.65
2022-09-04T05:30:34.300Z,14.67
2022-09-04T05:33:17.456Z,14.66
2022-09-04T05:35:57.757Z,14.71
2022-09-04T05:38:38.414Z,14.73
2022-09-04T05:41:25.307Z,14.74
2022-09-04T05:44:11.391Z,14.84
2022-09-04T05:47:00.692Z,14.97
2022-09-04T05:49:48.911Z,15.08
2022-09-04T05:52:36.380Z,15.31
2022-09-04T05:55:32.431Z,15.45
2022-09-04T05:58:31.092Z,15.59
2022-09-04T06:01:23.542Z,15.70
2022-09-04T06:04:26.623Z,15.78
2022-09-04T06:07:09.739Z,15.93
2022-09-04T06:10:01.218Z,16.01
2022-09-04T06:13:01.324Z,16.14
2022-09-04T06:15:46.695Z,16.30
2022-09-04T06:18:38.857Z,16.41
2022-09-04T06:21:51.067Z,16.48
2022-09-04T06:24:43.410Z,16.62
2022-09-04T06:27:41.064Z,17.07
2022-09-04T06:30:18.091Z,17.52
2022-09-04T06:33:27.283Z,17.82
2022-09-04T06:36:28.365Z,18.71
2022-09-04T06:39:24.655Z,19.55
2022-09-04T06:42:13.602Z,20.73
2022-09-04T06:45:05.877Z,23.20
2022-09-04T06:47:51.959Z,25.49
2022-09-04T06:50:32.823Z,27.57
2022-09-04T06:53:21.487Z,29.59
2022-09-04T06:56:04.982Z,31.43
2022-09-04T06:59:06.146Z,33.07
2022-09-04T07:01:51.025Z,34.72
2022-09-04T07:04:40.907Z,35.99
2022-09-04T07:07:27.953Z,36.70
2022-09-04T07:10:10.421Z,37.33
2022-09-04T07:13:24.107Z,38.04
2022-09-04T07:16:15.399Z,37.88
2022-09-04T07:19:04.011Z,36.29
2022-09-04T07:21:44.738Z,36.03
2022-09-04T07:24:49.621Z,36.04
2022-09-04T07:27:36.788Z,36.42
2022-09-04T07:30:12.122Z,36.97
2022-09-04T07:32:53.223Z,36.69
2022-09-04T07:35:36.709Z,36.60
2022-09-04T07:38:23.491Z,36.23
2022-09-04T07:41:06.238Z,35.31
2022-09-04T07:43:52.605Z,34.28
2022-09-04T07:46:38.078Z,33.28
2022-09-04T07:49:21.668Z,32.33
2022-09-04T07:52:01.503Z,31.24
2022-09-04T07:54:54.165Z,30.68
2022-09-04T07:57:54.519Z,31.16
2022-09-04T08:00:29.389Z,32.31
2022-09-04T08:03:34.224Z,33.21
2022-09-04T08:06:18.636Z,34.91
2022-09-04T08:09:17.744Z,36.64
2022-09-04T08:12:09.096Z,37.92
2022-09-04T08:15:05.729Z,38.82
2022-09-04T08:18:11.743Z,38.89
2022-09-04T08:20:53.614Z,37.80
2022-09-04T08:23:57.987Z,37.16
2022-09-04T08:26:39.151Z,37.63
2022-09-04T08:29:34.318Z,38.14
2022-09-04T08:32:18.856Z,37.57
2022-09-04T08:35:04.921Z,36.34
2022-09-04T08:37:51.771Z,35.58
2022-09-04T08:40:52.639Z,35.11
2022-09-04T08:43:38.801Z,33.60
2022-09-04T08:46:45.589Z,32.23
2022-09-04T08:49:48.243Z,30.73
2022-09-04T08:52:40.869Z,29.81
2022-09-04T08:55:40.171Z,28.93
2022-09-04T08:58:48.213Z,27.79
2022-09-04T09:01:45.305Z,27.13
2022-09-04T09:04:46.079Z,26.58
2022-09-04T09:07:45.586Z,25.96
2022-09-04T09:10:44.584Z,25.70
2022-09-04T09:13:55.365Z,25.37
2022-09-04T09:16:44.667Z,25.06
2022-09-04T09:19:38.040Z,24.74
2022-09-04T09:22:38.512Z,24.52
2022-09-04T09:25:27.973Z,24.40
2022-09-04T09:28:25.761Z,24.47
2022-09-04T09:31:28.964Z,24.53
2022-09-04T09:34:55.006Z,24.50
2022-09-04T09:38:04.746Z,24.50
2022-09-04T09:41:08.188Z,24.54
2022-09-04T09:44:08.259Z,24.52
2022-09-04T09:47:11.698Z,24.45
2022-09-04T09:50:14.890Z,24.25
2022-09-04T09:53:16.940Z,24.09
2022-09-04T09:56:32.765Z,24.10
2022-09-04T10:02:52.268Z,24.35
2022-09-04T10:05:55.156Z,24.47
2022-09-04T10:09:09.372Z,24.60
2022-09-04T10:12:22.384Z,24.63
2022-09-04T10:15:39.480Z,24.76
2022-09-04T10:18:49.333Z,24.99
2022-09-04T10:22:04.381Z,25.22
2022-09-04T10:25:06.389Z,25.28
2022-09-04T10:27:56.968Z,25.18
2022-09-04T10:30:37.553Z,25.17
2022-09-04T10:33:33.533Z,25.04
2022-09-04T10:36:26.287Z,24.95
2022-09-04T10:39:32.242Z,24.92
2022-09-04T10:42:22.272Z,24.90
2022-09-04T10:45:12.552Z,24.94
2022-09-04T10:48:18.973Z,24.97
2022-09-04T10:51:22.964Z,24.96
2022-09-04T10:54:30.428Z,24.93
2022-09-04T10:57:18.774Z,25.18
2022-09-04T10:59:59.198Z,25.25
2022-09-04T11:03:03.720Z,25.00
2022-09-04T11:06:03.412Z,24.90
2022-09-04T11:08:56.571Z,25.03
2022-09-04T11:11:55.479Z,25.06
2022-09-04T11:15:11.156Z,24.99
2022-09-04T11:18:07.250Z,24.87
2022-09-04T11:21:12.764Z,24.75
2022-09-04T11:24:33.529Z,24.59
2022-09-04T11:27:31.364Z,24.57
2022-09-04T11:30:17.207Z,24.54
2022-09-04T11:33:33.180Z,24.71
2022-09-04T11:36:35.840Z,24.70
2022-09-04T11:39:39.807Z,24.77
2022-09-04T11:42:43.596Z,24.78
2022-09-04T11:45:49.144Z,24.59
2022-09-04T11:48:51.230Z,24.41
2022-09-04T11:51:55.806Z,24.23
2022-09-04T11:55:01.675Z,24.12
2022-09-04T11:57:48.371Z,24.04
2022-09-04T12:00:22.637Z,23.98
2022-09-04T12:03:31.619Z,23.95
2022-09-04T12:06:16.768Z,23.82
2022-09-04T12:09:27.577Z,23.63
2022-09-04T12:12:29.710Z,23.58
2022-09-04T12:15:28.671Z,24.13
2022-09-04T12:18:22.041Z,25.94
2022-09-04T12:21:38.632Z,28.05
2022-09-04T12:24:33.180Z,30.34
2022-09-04T12:27:40.019Z,31.15
2022-09-04T12:30:21.229Z,31.04
2022-09-04T12:33:20.242Z,31.03
2022-09-04T12:36:39.868Z,30.80
2022-09-04T12:39:54.668Z,30.54
2022-09-04T12:42:34.705Z,29.37
2022-09-04T12:45:22.202Z,28.45
2022-09-04T12:48:10.730Z,28.01
2022-09-04T12:50:53.514Z,27.93
2022-09-04T12:53:52.602Z,27.67
2022-09-04T12:56:44.828Z,27.40
2022-09-04T12:59:42.014Z,27.22
2022-09-04T13:02:28.547Z,27.11
2022-09-04T13:05:14.015Z,27.06
2022-09-04T13:07:58.357Z,27.03
2022-09-04T13:10:38.253Z,26.78
2022-09-04T13:13:25.167Z,26.45
2022-09-04T13:16:05.202Z,26.13
2022-09-04T13:18:49.614Z,25.88
2022-09-04T13:21:36.095Z,25.71
2022-09-04T13:24:25.969Z,25.53
2022-09-04T13:27:26.951Z,25.34
2022-09-04T13:30:09.892Z,25.18
2022-09-04T13:33:05.752Z,25.04
2022-09-04T13:35:59.877Z,24.90
2022-09-04T13:38:59.412Z,24.82
2022-09-04T13:41:59.089Z,24.76
2022-09-04T13:44:51.264Z,24.66
2022-09-04T13:47:32.616Z,24.62
2022-09-04T13:50:14.589Z,24.54
2022-09-04T13:52:52.438Z,24.47
2022-09-04T13:55:50.054Z,24.42
2022-09-04T13:58:30.008Z,24.33
2022-09-04T14:01:08.416Z,24.20
2022-09-04T14:03:46.229Z,24.15
2022-09-04T14:06:22.466Z,24.11
2022-09-04T14:09:04.576Z,24.07
2022-09-04T14:12:09.206Z,24.04
2022-09-04T14:15:12.381Z,23.97
2022-09-04T14:17:58.079Z,23.90
2022-09-04T14:20:37.488Z,23.85
2022-09-04T14:23:21.883Z,23.81
2022-09-04T14:26:04.524Z,23.80
2022-09-04T14:28:47.644Z,23.87
2022-09-04T14:31:33.956Z,23.94
2022-09-04T14:34:17.186Z,24.04
2022-09-04T14:37:02.217Z,24.15
2022-09-04T14:39:42.822Z,24.21
2022-09-04T14:42:28.995Z,24.34
2022-09-04T14:45:19.889Z,24.47
2022-09-04T14:47:57.527Z,24.55
2022-09-04T14:50:34.655Z,24.56
2022-09-04T14:53:10.138Z,24.60
2022-09-04T14:56:05.940Z,24.66
2022-09-04T14:58:47.745Z,24.65
2022-09-04T15:01:25.062Z,24.58
2022-09-04T15:04:02.694Z,24.54
2022-09-04T15:07:07.914Z,24.46
2022-09-04T15:09:41.502Z,24.35
2022-09-04T15:12:25.344Z,24.21
2022-09-04T15:15:11.712Z,24.15
2022-09-04T15:17:51.829Z,24.13
2022-09-04T15:20:28.619Z,24.10
2022-09-04T15:23:07.961Z,24.02
2022-09-04T15:25:59.468Z,23.94
2022-09-04T15:28:41.289Z,23.88
2022-09-04T15:31:18.626Z,23.77
2022-09-04T15:34:00.656Z,23.69
2022-09-04T15:36:36.436Z,23.63
2022-09-04T15:39:18.331Z,23.56
2022-09-04T15:41:52.837Z,23.50
2022-09-04T15:44:31.642Z,23.43
2022-09-04T15:47:16.334Z,23.35
2022-09-04T15:49:55.658Z,23.26
2022-09-04T15:52:40.421Z,23.21
2022-09-04T15:55:26.487Z,23.19
2022-09-04T15:58:08.925Z,23.15
2022-09-04T16:00:56.902Z,23.10
2022-09-04T16:03:38.578Z,23.03
2022-09-04T16:06:21.264Z,22.97
2022-09-04T16:08:58.466Z,22.94
2022-09-04T16:11:36.098Z,22.91
2022-09-04T16:14:18.928Z,22.89
2022-09-04T16:16:56.640Z,22.86
2022-09-04T16:19:36.350Z,22.79
2022-09-04T16:22:22.819Z,22.75
2022-09-04T16:25:07.209Z,22.70
2022-09-04T16:27:50.812Z,22.66
2022-09-04T16:30:36.643Z,22.61
2022-09-04T16:33:27.840Z,22.58
2022-09-04T16:36:07.313Z,22.52
2022-09-04T16:38:46.838Z,22.48
2022-09-04T16:41:26.681Z,22.43
2022-09-04T16:44:21.236Z,22.34
2022-09-04T16:47:09.366Z,22.30
2022-09-04T16:49:54.013Z,22.23
2022-09-04T16:52:54.946Z,22.19
2022-09-04T16:55:58.962Z,22.11
2022-09-04T16:58:47.945Z,22.03
2022-09-04T17:01:28.460Z,21.94
2022-09-04T17:04:23.581Z,21.89
2022-09-04T17:07:05.567Z,21.85
2022-09-04T17:10:03.187Z,21.78
2022-09-04T17:12:50.411Z,21.73
2022-09-04T17:15:34.303Z,21.67
2022-09-04T17:18:11.582Z,21.61
2022-09-04T17:26:29.878Z,21.55
2022-09-04T17:28:57.952Z,21.52
2022-09-04T17:29:08.634Z,21.44
2022-09-04T17:29:55.065Z,21.36
2022-09-04T17:36:01.260Z,21.29
2022-09-04T17:40:34.876Z,21.21
2022-09-04T17:41:31.303Z,21.09
2022-09-04T17:41:57.005Z,21.02
2022-09-04T17:44:51.136Z,20.94
2022-09-04T17:47:34.530Z,20.88
2022-09-04T17:50:17.435Z,20.84
2022-09-04T17:53:02.441Z,20.77
2022-09-04T17:55:39.036Z,20.69
2022-09-04T17:58:35.298Z,20.61
2022-09-04T18:01:15.958Z,20.57
2022-09-04T18:04:19.981Z,20.52
2022-09-04T18:07:28.710Z,20.49
2022-09-04T18:10:08.759Z,20.44
2022-09-04T18:12:47.955Z,20.39
2022-09-04T18:15:33.592Z,20.36
2022-09-04T18:18:24.817Z,20.34
2022-09-04T18:21:10.242Z,20.31
2022-09-04T18:23:54.699Z,20.29
2022-09-04T18:26:41.664Z,20.26
2022-09-04T18:31:55.797Z,20.22
2022-09-04T18:37:08.883Z,20.17
2022-09-04T18:37:19.639Z,20.14
2022-09-04T18:39:08.246Z,20.13
2022-09-04T18:50:24.715Z,20.07
2022-09-04T18:50:28.626Z,20.05
2022-09-04T18:50:48.821Z,20.03
2022-09-04T18:51:20.777Z,20.02
2022-09-04T18:54:01.660Z,20.01
2022-09-04T18:56:44.535Z,20.03
2022-09-04T18:59:25.442Z,20.04
2022-09-04T19:02:07.138Z,20.02
2022-09-04T19:04:53.473Z,20.04
2022-09-04T19:07:35.433Z,20.06
2022-09-04T19:10:19.754Z,20.08
2022-09-04T19:13:03.313Z,20.07
2022-09-04T19:15:50.468Z,20.06
2022-09-04T19:18:35.852Z,20.05
2022-09-04T19:21:23.353Z,20.04
2022-09-04T19:24:08.046Z,20.04
2022-09-04T19:26:47.553Z,20.05
2022-09-04T19:29:28.105Z,20.05
2022-09-04T19:32:10.714Z,20.05
2022-09-04T19:34:50.800Z,20.05
2022-09-04T19:38:46.371Z,20.05
2022-09-04T19:46:02.982Z,20.04
2022-09-04T19:46:17.047Z,20.03
2022-09-04T19:46:44.467Z,20.02
2022-09-04T19:50:54.039Z,19.99
2022-09-04T19:53:32.907Z,19.95
2022-09-04T19:55:25.265Z,19.88
2022-09-04T19:58:11.235Z,19.85
2022-09-04T20:00:52.753Z,19.82
2022-09-04T20:03:32.183Z,19.79
2022-09-04T20:06:20.408Z,19.74
2022-09-04T20:09:07.505Z,19.70
2022-09-04T20:11:48.203Z,19.64
2022-09-04T20:14:29.832Z,19.58
2022-09-04T20:17:15.898Z,19.52
2022-09-04T20:19:54.345Z,19.46
2022-09-04T20:22:34.317Z,19.38
2022-09-04T20:25:29.170Z,19.30
2022-09-04T20:28:17.829Z,19.25
2022-09-04T20:31:35.569Z,19.21
2022-09-04T20:34:12.110Z,19.17
2022-09-04T20:36:54.705Z,19.13
2022-09-04T20:39:37.301Z,19.06
2022-09-04T20:42:20.805Z,19.02
2022-09-04T20:47:32.021Z,18.97
2022-09-04T20:52:42.866Z,18.89
2022-09-04T20:52:51.139Z,18.83
2022-09-04T20:54:12.717Z,18.77
2022-09-04T20:58:46.465Z,18.73
2022-09-04T21:03:10.760Z,18.67
2022-09-04T21:03:19.261Z,18.65
2022-09-04T21:06:12.998Z,18.61
2022-09-04T21:08:54.111Z,18.59
2022-09-04T21:11:40.720Z,18.58
2022-09-04T21:14:22.508Z,18.54
2022-09-04T21:17:34.740Z,18.51
2022-09-04T21:20:26.472Z,18.48
2022-09-04T21:23:41.074Z,18.43
2022-09-04T21:26:33.874Z,18.43
2022-09-04T21:29:34.796Z,18.39
2022-09-04T21:32:42.358Z,18.38
2022-09-04T21:35:23.088Z,18.36
2022-09-04T21:38:04.674Z,18.32
2022-09-04T21:41:03.065Z,18.31
2022-09-04T21:44:10.447Z,18.28
2022-09-04T21:47:08.462Z,18.20
2022-09-04T21:50:14.531Z,18.15
2022-09-04T21:53:05.159Z,18.13
2022-09-04T22:00:32.047Z,18.09
2022-09-04T22:02:41.885Z,18.06
2022-09-04T22:02:42.952Z,18.07
2022-09-04T22:05:19.723Z,18.07
2022-09-04T22:13:28.868Z,18.08
2022-09-04T22:13:33.435Z,18.10
2022-09-04T22:14:11.908Z,18.08
2022-09-04T22:17:09.020Z,18.05
2022-09-04T22:20:18.518Z,18.01
2022-09-04T22:23:25.219Z,17.99
2022-09-04T22:26:24.846Z,17.93
2022-09-04T22:29:39.377Z,17.93
2022-09-04T22:32:45.542Z,17.94
2022-09-04T22:36:04.215Z,17.94
2022-09-04T22:38:53.318Z,17.89
2022-09-04T22:41:48.827Z,17.85
2022-09-04T22:44:38.495Z,17.79
2022-09-04T22:47:36.227Z,17.72
2022-09-04T22:50:50.240Z,17.65
2022-09-04T22:53:46.859Z,17.62
2022-09-04T22:56:30.113Z,17.62
2022-09-04T22:59:25.740Z,17.59
2022-09-04T23:03:06.456Z,17.56
2022-09-04T23:07:35.426Z,17.52
2022-09-04T23:13:48.523Z,17.55
2022-09-04T23:13:52.519Z,17.55
2022-09-04T23:16:18.455Z,17.51
2022-09-04T23:24:28.544Z,17.49
2022-09-04T23:26:36.244Z,17.49
2022-09-04T23:26:42.531Z,17.49
2022-09-04T23:29:22.074Z,17.46
2022-09-04T23:32:16.043Z,17.42
2022-09-04T23:35:34.458Z,17.38
2022-09-04T23:38:58.001Z,17.35
2022-09-04T23:41:57.707Z,17.32
2022-09-04T23:45:25.373Z,17.29
2022-09-04T23:48:42.013Z,17.30
2022-09-04T23:51:42.412Z,17.25
2022-09-04T23:55:03.439Z,17.22
2022-09-04T23:58:00.211Z,17.20
